NY Terminal Aviation Weather Discussion (AFD) - Prepared: 356 PM EDT FRI JUL 3 2015
HIGH PRESSURE OVER THE REGION SLIDES OFFSHORE LATER THIS AFTERNOON. 
A WAVE OF LOW PRESSURE APPROACHES FROM THE MID ATLANTIC STATES 
TONIGHT.

VFR FOR THE REMAINDER OF THE DAY. MODERATE CONFIDENCE IN WIND 
FORECASTS. SEABREEZES HAVE STARTED TO DEVELOP...AND WILL CONTINUE TO 
OVERSPREAD THE TERMINALS THROUGH 21Z.

VFR TONIGHT WITH WINDS DIMINISHING TO LESS THAN 10 KT AT MOST IF NOT 
ALL TERMINALS. 

ON SATURDAY...THERE IS A CHANCE THAT MVFR CONDITIONS WILL DEVELOP IN 
LIGHT RAIN AS LOW PRESSURE PASSES SOUTH OF THE REGION. THIS WILL 
DEPEND ON THE EXACT TRACK OF THE LOW. IF THE LOW IS A BIT FURTHER 
NORTH...THEN MORE WIDESPREAD MVFR CIGS WILL BE POSSIBLE. FOR 
NOW...NOT ENOUGH CONFIDENCE AT THIS TIME TO INCLUDE IN THE TAF.

5 Day General Aviation Outlook:

.OUTLOOK FOR 18Z SATURDAY THROUGH WEDNESDAY...
.SATURDAY AFTERNOON...MVFR POSSIBLE IN RAIN. E/NE WINDS
10-15G20KT...BECOMING N LATE.
.SATURDAY NIGHT-TUESDAY MORNING...VFR. NORTHERLY WINDS
DIMINISHING SAT EVE.
.TUESDAY AFTERNOON-WEDNESDAY...CHANCE OF MVFR IN SHOWERS AND
THUNDERSTORMS.


NY Metro Terminal Aviation Weather Summary: (Explanation of Color Coding)
NOTE: All Wind Directions are TRUE (add 13 degrees for magnetic directions). Tail and Crosswind Calculations do account for the magnetic deviation of runways.

Click on the Airport Below for Specific Information at that Terminal

TAF Overview JFK TAF LGA TAF EWR TAF TEB TAF HPN TAF ISP TAF

Jump to AirSpace Impacts Section Condensed "lite" version of SPA page
**************************************************************************************
KJFK Terminal Weather: (Wind Directions Are True, Except Where Noted, ADD 13 degrees for Magnetic)

5MIN KJFK 032155Z 19007KT 10SM CLR 25/14 A2997 -30 51 
     1200 200/07 RMK AO2
5MIN KJFK 032150Z 19008KT 10SM FEW065 BKN250 25/15 
     A2997 -30 53 1200 200/08 RMK AO2 SLP150 T02500150
********************************************
****        MAGNETIC DIRECTIONS         ****
********************************************
KJFK 07/03/2015 22:07:19 GMT 180 07 KT
KJFK 07/03/2015 22:05:19 GMT 180 07 KT
KJFK 07/03/2015 22:03:40 GMT 190 07 KT
KJFK 07/03/2015 22:01:16 GMT 180 08 KT
KJFK 07/03/2015 21:59:16 GMT 170 06 KT
KJFK 07/03/2015 21:57:16 GMT 180 06 KT
KJFK 07/03/2015 21:55:21 GMT 170 07 KT
KJFK 07/03/2015 21:53:21 GMT 190 05 KT
KJFK 07/03/2015 21:51:21 GMT 180 08 KT
KJFK 07/03/2015 21:48:03 GMT 170 06 KT
SAUS70 KJFK 032200 RRE
METAR KJFK 032151Z 19009KT 10SM FEW065 BKN250 25/14 A2997 RMK AO2 SLP150
     T02500144
FTNA35 KJFK 031940 RRB
KJFK 031930Z 0320/0424 20012KT P6SM BKN250
     FM040200 14005KT P6SM BKN200
     FM040800 08007KT P6SM OVC100
     FM041400 06010G16KT P6SM SCT035 OVC060
     PROB30 0414/0420 5SM -RA BKN035
KJFK FCSTER COMMENTS: NO UNSCHEDULED AMENDMENTS EXPECTED. 

jfk

JFK Hourly Forecast Temperature (C)

JFK Hourly TMPS
**************************************************************************************
KLGA Terminal Weather: (Wind Directions Are True, Except Where Noted, ADD 13 degrees for Magnetic)

5MIN KLGA 032155Z 14008KT 10SM CLR 26/13 A2995 0 44 
     1300 160/08 RMK AO2
5MIN KLGA 032150Z 16007KT 10SM FEW065 BKN250 26/13 
     A2995 0 46 1300 170/07 RMK AO2 SLP141 T02560133
********************************************
****        MAGNETIC DIRECTIONS         ****
********************************************
KLGA 07/03/2015 22:07:53 GMT 150 10 KT
KLGA 07/03/2015 22:06:03 GMT 160 10 KT
KLGA 07/03/2015 22:03:54 GMT 150 11 KT
KLGA 07/03/2015 22:02:04 GMT 150 11 KT
KLGA 07/03/2015 21:59:54 GMT 170 10 KT
KLGA 07/03/2015 21:57:54 GMT 170 09 KT
KLGA 07/03/2015 21:56:04 GMT 170 09 KT
KLGA 07/03/2015 21:53:53 GMT 170 09 KT
KLGA 07/03/2015 21:52:05 GMT 160 08 KT
KLGA 07/03/2015 21:49:54 GMT 170 08 KT
SAUS70 KLGA 032200
METAR KLGA 032151Z 17007KT 10SM FEW065 BKN250 26/13 A2995 RMK AO2 SLP141
     T02560128
FTUS80 KLGA 031933 AAB
KLGA 031930Z 0320/0418 VRB06KT P6SM BKN250
     FM032100 18010KT P6SM SCT250
     FM040200 15005KT P6SM BKN200
     FM040800 08007KT P6SM OVC100
     FM041400 06010G14KT P6SM SCT035 OVC060 PROB30 0414/0418 5SM
      -RA BKN035
KLGA FCSTER COMMENTS: TIMING OF THE SEABREEZE COULD BE OFF BY AN 
HOUR. 

lga


**************************************************************************************

KEWR Terminal Weather: (Wind Directions Are True, Except Where Noted, ADD 13 degrees for Magnetic)

5MIN KEWR 032155Z 16009KT 10SM CLR 26/16 A2995 0 53 
     1300 180/09 RMK AO2
5MIN KEWR 032150Z 17007KT 10SM FEW060 BKN250 26/16 
     A2995 0 53 1300 180/07 RMK AO2 SLP140 T02560156
********************************************
****        MAGNETIC DIRECTIONS         ****
********************************************
KEWR 07/03/2015 22:07:36 GMT 190 06 KT
KEWR 07/03/2015 22:05:36 GMT 200 06 KT
KEWR 07/03/2015 22:03:36 GMT 190 06 KT
KEWR 07/03/2015 22:01:36 GMT 200 06 KT
KEWR 07/03/2015 21:59:36 GMT 190 07 KT
KEWR 07/03/2015 21:57:36 GMT 180 08 KT
KEWR 07/03/2015 21:55:36 GMT 190 08 KT
KEWR 07/03/2015 21:53:36 GMT 180 08 KT
KEWR 07/03/2015 21:51:36 GMT 180 08 KT
KEWR 07/03/2015 21:49:36 GMT 190 09 KT
SAUS70 KEWR 032200
METAR KEWR 032151Z 17007KT 10SM FEW060 BKN250 26/16 A2995 RMK AO2 SLP140
     T02560156
FTUS80 KEWR 031933 AAA
KEWR 031930Z 0320/0424 18006KT P6SM BKN250
     FM032100 16008KT P6SM BKN250
     FM040800 08005KT P6SM OVC100
     FM041300 04010G16KT P6SM SCT035 OVC060 PROB30 0413/0419 5SM
      -RA BKN035
KEWR FCSTER COMMENTS: TIMING OF THE SEABREEZE COULD BE OFF BY AN 
HOUR. 

ewr
Afternoon EWR Haze Potential Forecast: KEWR Haze Forecast Not Available at This Time
IS NOT AVAILABLE AT THIS TIME


******************************************************************************

KTEB Terminal Weather:
SAUS80 KTEB 032200
METAR KTEB 032151Z 24006KT 10SM SCT065 27/12 A2994 RMK AO2 SLP137
     T02670117
FTUS80 KTEB 032103 AAB
KTEB 032102Z 0321/0418 VRB05KT P6SM FEW060 BKN250
     FM032230 18006KT P6SM BKN250
     FM040200 15005KT P6SM BKN200
     FM040800 09005KT P6SM OVC100
     FM041300 06010G16KT P6SM SCT035 OVC060 PROB30 0413/0418 5SM
      -RA BKN035
KTEB FCSTER COMMENTS: TIMING OF THE SEABREEZE COULD BE OFF BY AN 
HOUR. 

teb

 


**************************************************************************************

KHPN Terminal Weather:
SAUS70 KHPN 032200 RRB
METAR KHPN 032156Z 30004KT 10SM CLR 25/11 A2996 RMK AO2 SLP142 T02500106
     $
FTUS41 KHPN 032106 AAA
KHPN 032103Z 0321/0418 28005KT P6SM BKN250
     FM032300 17005KT P6SM BKN250
     FM040100 VRB04KT P6SM BKN200
     FM040800 06005KT P6SM OVC100
     FM041400 06010KT P6SM SCT040 OVC080 AMD NOT SKED
KHPN FCSTER COMMENTS: TIMING OF THE SEABREEZE COULD BE OFF BY AN 
HOUR. 

HPN


******************************************************************************

KISP Terminal Weather:
SAUS70 KISP 032200 RRA
METAR KISP 032156Z 17007KT 10SM BKN260 24/11 A2996 RMK AO2 SLP144
     T02390111
FTUS80 KISP 031933 AAA
KISP 031930Z 0320/0418 VRB06KT P6SM BKN250
     FM032100 19009KT P6SM SCT250
     FM040200 VRB03KT P6SM BKN200
     FM040900 09006KT P6SM OVC100
     FM041500 06010G16KT P6SM SCT035 OVC060 PROB30 0415/0418 5SM
      -RA BKN035
KISP FCSTER COMMENTS: TIMING OF THE SEABREEZE COULD BE OFF BY AN 
HOUR. DIRECTION MAY BE 20-30 DEGREES ON EITHER SIDE OF FORECAST.

ISP

 


ZNY SWAP Season Information

(ZNY SWAP STATEMENT) (Click for PDF File) (ZNY BRIEFING) (Click for PDF File)

*******************************************************
***        NY AIR ROUTE TRAFFIC CONTROL CENTER      ***
***                DAILY SWAP STATEMENT             ***
*******************************************************
- KNYC 021356
WRKSWP
FRIDAY,  JULY 3, 2015
SWAP IS POSSIBLE ANYTIME AFTER 18Z.
SCT TS WILL FORM IN ERN ZID/WRN ZDC. TS WILL MOV NEWD INTO SRN ZOB 
AFT 20-21Z AND POSSIBLY SWRN ZNY AFT 23Z. VARYING IMPACTS TO J80 
THRU J75 ARE PSBL. SCTD TS ARE ALSO LIKELY FROM SRN VA TO COASTAL NC 
ESPECIALLY AFT 20-21Z. IMPACTS TO WHITE/WAVEY DEPARTURES ARE PSBL 
OUTSIDE OF ZNY AIRSPACE.

ADDT'L INFO: 
AZEZU-PAEPR-HANRI(L453-M201):  IMAPCTS POSSIBLE. 
DITCH: NO IMPACTS EXPECTED. 
EAST GATES:   NO IMPACTS EXPECTED.
TOMORROW MORNINGS SWAP OUTLOOK:  SWAP IS POSSIBLE.

$$
KS

N90 AirSpace Impacts

N90 ZNY Gate TSTM Forecast    SWAP Day One Forecast

SWAP Day One Forecast    SWAP Day Two Outlook

National Collaborative Convective Forecast Product (CCFP) Forecasts (Mar-Oct)

CAWS - Collaborative Aviation Weather Statement


Vertical Wind Profile
Untitled Document